sensor_id;sensor_type;location;lat;lon;timestamp;P1;durP1;ratioP1;P2;durP2;ratioP2
84355;SDS011;74539;43.518;1.504;2024-03-08T00:01:49;1.45;;;0.50;;
84355;SDS011;74539;43.518;1.504;2024-03-08T00:04:15;1.83;;;0.80;;
84355;SDS011;74539;43.518;1.504;2024-03-08T00:06:41;1.48;;;0.65;;
84355;SDS011;74539;43.518;1.504;2024-03-08T00:09:06;1.88;;;0.60;;
84355;SDS011;74539;43.518;1.504;2024-03-08T00:11:35;1.52;;;0.75;;
84355;SDS011;74539;43.518;1.504;2024-03-08T00:14:01;2.38;;;0.50;;
84355;SDS011;74539;43.518;1.504;2024-03-08T00:16:26;2.05;;;0.70;;
84355;SDS011;74539;43.518;1.504;2024-03-08T00:18:52;1.55;;;0.47;;
84355;SDS011;74539;43.518;1.504;2024-03-08T00:21:18;1.15;;;0.70;;
84355;SDS011;74539;43.518;1.504;2024-03-08T00:23:43;1.67;;;0.68;;
84355;SDS011;74539;43.518;1.504;2024-03-08T00:26:09;2.30;;;0.60;;
84355;SDS011;74539;43.518;1.504;2024-03-08T00:28:35;1.08;;;0.60;;
84355;SDS011;74539;43.518;1.504;2024-03-08T00:31:00;2.00;;;0.63;;
84355;SDS011;74539;43.518;1.504;2024-03-08T00:33:26;3.03;;;0.60;;
84355;SDS011;74539;43.518;1.504;2024-03-08T00:35:52;1.10;;;0.68;;
84355;SDS011;74539;43.518;1.504;2024-03-08T00:38:22;2.08;;;0.60;;
84355;SDS011;74539;43.518;1.504;2024-03-08T00:40:47;2.15;;;0.60;;
84355;SDS011;74539;43.518;1.504;2024-03-08T00:43:13;2.38;;;0.73;;
84355;SDS011;74539;43.518;1.504;2024-03-08T00:45:40;1.40;;;0.57;;
84355;SDS011;74539;43.518;1.504;2024-03-08T00:48:09;1.10;;;0.55;;
84355;SDS011;74539;43.518;1.504;2024-03-08T00:50:36;1.48;;;0.52;;
84355;SDS011;74539;43.518;1.504;2024-03-08T00:53:02;2.03;;;0.65;;
84355;SDS011;74539;43.518;1.504;2024-03-08T00:55:28;2.05;;;0.70;;
84355;SDS011;74539;43.518;1.504;2024-03-08T00:57:54;1.75;;;0.60;;
84355;SDS011;74539;43.518;1.504;2024-03-08T01:00:20;2.13;;;0.70;;
84355;SDS011;74539;43.518;1.504;2024-03-08T01:02:46;1.38;;;0.70;;
84355;SDS011;74539;43.518;1.504;2024-03-08T01:05:13;1.48;;;0.70;;
84355;SDS011;74539;43.518;1.504;2024-03-08T01:07:38;2.25;;;0.80;;
84355;SDS011;74539;43.518;1.504;2024-03-08T01:10:04;1.58;;;0.50;;
84355;SDS011;74539;43.518;1.504;2024-03-08T01:12:34;1.23;;;0.80;;
84355;SDS011;74539;43.518;1.504;2024-03-08T01:15:00;1.40;;;0.63;;
84355;SDS011;74539;43.518;1.504;2024-03-08T01:17:26;0.93;;;0.45;;
84355;SDS011;74539;43.518;1.504;2024-03-08T01:19:52;1.88;;;0.70;;
84355;SDS011;74539;43.518;1.504;2024-03-08T01:22:18;1.38;;;0.60;;
84355;SDS011;74539;43.518;1.504;2024-03-08T01:24:45;1.85;;;0.57;;
84355;SDS011;74539;43.518;1.504;2024-03-08T01:27:10;1.70;;;0.70;;
84355;SDS011;74539;43.518;1.504;2024-03-08T01:29:37;2.45;;;0.70;;
84355;SDS011;74539;43.518;1.504;2024-03-08T01:32:03;0.90;;;0.40;;
84355;SDS011;74539;43.518;1.504;2024-03-08T01:34:29;2.10;;;0.68;;
84355;SDS011;74539;43.518;1.504;2024-03-08T01:36:55;1.92;;;0.70;;
84355;SDS011;74539;43.518;1.504;2024-03-08T01:39:21;1.75;;;0.60;;
84355;SDS011;74539;43.518;1.504;2024-03-08T01:41:47;1.58;;;0.52;;
84355;SDS011;74539;43.518;1.504;2024-03-08T01:44:13;1.30;;;0.60;;
84355;SDS011;74539;43.518;1.504;2024-03-08T01:46:43;1.63;;;0.80;;
84355;SDS011;74539;43.518;1.504;2024-03-08T01:49:10;1.25;;;0.57;;
84355;SDS011;74539;43.518;1.504;2024-03-08T01:51:37;1.00;;;0.60;;
84355;SDS011;74539;43.518;1.504;2024-03-08T01:54:05;1.52;;;0.50;;
84355;SDS011;74539;43.518;1.504;2024-03-08T01:56:32;2.08;;;0.75;;
84355;SDS011;74539;43.518;1.504;2024-03-08T01:58:58;2.55;;;0.82;;
84355;SDS011;74539;43.518;1.504;2024-03-08T02:01:24;2.13;;;0.70;;
84355;SDS011;74539;43.518;1.504;2024-03-08T02:03:50;2.17;;;0.85;;
84355;SDS011;74539;43.518;1.504;2024-03-08T02:06:16;1.27;;;0.50;;
84355;SDS011;74539;43.518;1.504;2024-03-08T02:08:42;1.63;;;0.63;;
84355;SDS011;74539;43.518;1.504;2024-03-08T02:11:12;2.40;;;0.80;;
84355;SDS011;74539;43.518;1.504;2024-03-08T02:13:38;1.30;;;0.60;;
84355;SDS011;74539;43.518;1.504;2024-03-08T02:16:03;0.77;;;0.57;;
84355;SDS011;74539;43.518;1.504;2024-03-08T02:18:33;1.45;;;0.70;;
84355;SDS011;74539;43.518;1.504;2024-03-08T02:21:04;0.70;;;0.55;;
84355;SDS011;74539;43.518;1.504;2024-03-08T02:23:31;1.45;;;0.52;;
84355;SDS011;74539;43.518;1.504;2024-03-08T02:25:58;1.63;;;0.73;;
84355;SDS011;74539;43.518;1.504;2024-03-08T02:28:24;1.10;;;0.43;;
84355;SDS011;74539;43.518;1.504;2024-03-08T02:30:54;0.80;;;0.50;;
84355;SDS011;74539;43.518;1.504;2024-03-08T02:33:20;1.05;;;0.50;;
84355;SDS011;74539;43.518;1.504;2024-03-08T02:35:47;1.55;;;0.60;;
84355;SDS011;74539;43.518;1.504;2024-03-08T02:38:17;1.92;;;0.57;;
84355;SDS011;74539;43.518;1.504;2024-03-08T02:40:44;2.38;;;0.77;;
84355;SDS011;74539;43.518;1.504;2024-03-08T02:43:12;2.05;;;0.60;;
84355;SDS011;74539;43.518;1.504;2024-03-08T02:45:39;0.95;;;0.60;;
84355;SDS011;74539;43.518;1.504;2024-03-08T02:48:07;1.05;;;0.55;;
84355;SDS011;74539;43.518;1.504;2024-03-08T02:50:33;2.35;;;0.70;;
84355;SDS011;74539;43.518;1.504;2024-03-08T02:53:02;1.08;;;0.55;;
84355;SDS011;74539;43.518;1.504;2024-03-08T02:55:29;2.00;;;0.50;;
84355;SDS011;74539;43.518;1.504;2024-03-08T02:57:55;0.80;;;0.50;;
84355;SDS011;74539;43.518;1.504;2024-03-08T03:00:22;1.52;;;0.75;;
84355;SDS011;74539;43.518;1.504;2024-03-08T03:02:48;1.00;;;0.50;;
84355;SDS011;74539;43.518;1.504;2024-03-08T03:05:19;0.82;;;0.60;;
84355;SDS011;74539;43.518;1.504;2024-03-08T03:07:45;2.60;;;0.60;;
84355;SDS011;74539;43.518;1.504;2024-03-08T03:10:11;0.82;;;0.47;;
84355;SDS011;74539;43.518;1.504;2024-03-08T03:12:37;1.90;;;0.65;;
84355;SDS011;74539;43.518;1.504;2024-03-08T03:15:03;0.70;;;0.40;;
84355;SDS011;74539;43.518;1.504;2024-03-08T03:17:29;1.92;;;0.73;;
84355;SDS011;74539;43.518;1.504;2024-03-08T03:19:55;2.40;;;0.70;;
84355;SDS011;74539;43.518;1.504;2024-03-08T03:22:21;0.65;;;0.47;;
84355;SDS011;74539;43.518;1.504;2024-03-08T03:24:46;1.35;;;0.40;;
84355;SDS011;74539;43.518;1.504;2024-03-08T03:27:15;1.55;;;0.47;;
84355;SDS011;74539;43.518;1.504;2024-03-08T03:29:41;1.08;;;0.50;;
84355;SDS011;74539;43.518;1.504;2024-03-08T03:32:11;1.02;;;0.50;;
84355;SDS011;74539;43.518;1.504;2024-03-08T03:34:37;1.73;;;0.55;;
84355;SDS011;74539;43.518;1.504;2024-03-08T03:37:03;0.80;;;0.30;;
84355;SDS011;74539;43.518;1.504;2024-03-08T03:39:30;0.52;;;0.40;;
84355;SDS011;74539;43.518;1.504;2024-03-08T03:42:13;1.05;;;0.50;;
84355;SDS011;74539;43.518;1.504;2024-03-08T03:44:40;0.50;;;0.40;;
84355;SDS011;74539;43.518;1.504;2024-03-08T03:47:05;1.70;;;0.52;;
84355;SDS011;74539;43.518;1.504;2024-03-08T03:49:32;1.42;;;0.68;;
84355;SDS011;74539;43.518;1.504;2024-03-08T03:51:58;1.00;;;0.50;;
84355;SDS011;74539;43.518;1.504;2024-03-08T03:54:24;1.00;;;0.60;;
84355;SDS011;74539;43.518;1.504;2024-03-08T03:56:49;1.20;;;0.70;;
84355;SDS011;74539;43.518;1.504;2024-03-08T03:59:18;1.27;;;0.50;;
84355;SDS011;74539;43.518;1.504;2024-03-08T04:01:44;1.55;;;0.65;;
84355;SDS011;74539;43.518;1.504;2024-03-08T04:04:10;1.48;;;0.60;;
84355;SDS011;74539;43.518;1.504;2024-03-08T04:06:37;1.92;;;0.50;;
84355;SDS011;74539;43.518;1.504;2024-03-08T04:09:03;1.45;;;0.60;;
84355;SDS011;74539;43.518;1.504;2024-03-08T04:11:29;1.00;;;0.50;;
84355;SDS011;74539;43.518;1.504;2024-03-08T04:13:55;1.95;;;0.40;;
84355;SDS011;74539;43.518;1.504;2024-03-08T04:16:21;0.50;;;0.40;;
84355;SDS011;74539;43.518;1.504;2024-03-08T04:18:47;2.47;;;0.57;;
84355;SDS011;74539;43.518;1.504;2024-03-08T04:21:12;2.30;;;0.70;;
84355;SDS011;74539;43.518;1.504;2024-03-08T04:23:38;1.73;;;0.50;;
84355;SDS011;74539;43.518;1.504;2024-03-08T04:26:04;1.20;;;0.57;;
84355;SDS011;74539;43.518;1.504;2024-03-08T04:28:31;2.40;;;0.70;;
84355;SDS011;74539;43.518;1.504;2024-03-08T04:30:57;1.88;;;0.60;;
84355;SDS011;74539;43.518;1.504;2024-03-08T04:33:25;1.02;;;0.60;;
84355;SDS011;74539;43.518;1.504;2024-03-08T04:35:52;1.17;;;0.55;;
84355;SDS011;74539;43.518;1.504;2024-03-08T04:38:18;1.40;;;0.70;;
84355;SDS011;74539;43.518;1.504;2024-03-08T04:40:44;1.80;;;0.60;;
84355;SDS011;74539;43.518;1.504;2024-03-08T04:43:10;0.73;;;0.40;;
84355;SDS011;74539;43.518;1.504;2024-03-08T04:45:36;1.20;;;0.47;;
84355;SDS011;74539;43.518;1.504;2024-03-08T04:48:02;2.78;;;0.52;;
84355;SDS011;74539;43.518;1.504;2024-03-08T04:50:28;1.30;;;0.40;;
84355;SDS011;74539;43.518;1.504;2024-03-08T04:52:54;1.98;;;0.60;;
84355;SDS011;74539;43.518;1.504;2024-03-08T04:55:20;1.38;;;0.60;;
84355;SDS011;74539;43.518;1.504;2024-03-08T04:57:47;0.60;;;0.50;;
84355;SDS011;74539;43.518;1.504;2024-03-08T05:00:13;1.20;;;0.40;;
84355;SDS011;74539;43.518;1.504;2024-03-08T05:02:40;0.85;;;0.43;;
84355;SDS011;74539;43.518;1.504;2024-03-08T05:05:07;1.92;;;0.60;;
84355;SDS011;74539;43.518;1.504;2024-03-08T05:07:35;1.27;;;0.50;;
84355;SDS011;74539;43.518;1.504;2024-03-08T05:10:01;1.05;;;0.47;;
84355;SDS011;74539;43.518;1.504;2024-03-08T05:12:27;1.30;;;0.50;;
84355;SDS011;74539;43.518;1.504;2024-03-08T05:14:53;1.70;;;0.47;;
84355;SDS011;74539;43.518;1.504;2024-03-08T05:17:19;1.25;;;0.30;;
84355;SDS011;74539;43.518;1.504;2024-03-08T05:19:45;1.98;;;0.50;;
84355;SDS011;74539;43.518;1.504;2024-03-08T05:22:10;0.70;;;0.40;;
84355;SDS011;74539;43.518;1.504;2024-03-08T05:24:36;1.08;;;0.30;;
84355;SDS011;74539;43.518;1.504;2024-03-08T05:27:02;0.50;;;0.40;;
84355;SDS011;74539;43.518;1.504;2024-03-08T05:29:28;1.30;;;0.47;;
84355;SDS011;74539;43.518;1.504;2024-03-08T05:31:55;3.47;;;0.40;;
84355;SDS011;74539;43.518;1.504;2024-03-08T05:34:21;1.92;;;0.60;;
84355;SDS011;74539;43.518;1.504;2024-03-08T05:36:50;1.33;;;0.50;;
84355;SDS011;74539;43.518;1.504;2024-03-08T05:39:16;2.25;;;0.60;;
84355;SDS011;74539;43.518;1.504;2024-03-08T05:41:43;0.80;;;0.40;;
84355;SDS011;74539;43.518;1.504;2024-03-08T05:44:10;2.10;;;0.50;;
84355;SDS011;74539;43.518;1.504;2024-03-08T05:46:37;2.53;;;0.70;;
84355;SDS011;74539;43.518;1.504;2024-03-08T05:49:03;1.13;;;0.63;;
84355;SDS011;74539;43.518;1.504;2024-03-08T05:51:33;0.60;;;0.40;;
84355;SDS011;74539;43.518;1.504;2024-03-08T05:54:00;2.72;;;0.60;;
84355;SDS011;74539;43.518;1.504;2024-03-08T05:56:28;1.23;;;0.32;;
84355;SDS011;74539;43.518;1.504;2024-03-08T05:58:54;2.33;;;0.50;;
84355;SDS011;74539;43.518;1.504;2024-03-08T06:01:19;1.02;;;0.30;;
84355;SDS011;74539;43.518;1.504;2024-03-08T06:03:45;1.33;;;0.50;;
84355;SDS011;74539;43.518;1.504;2024-03-08T06:06:12;1.63;;;0.47;;
84355;SDS011;74539;43.518;1.504;2024-03-08T06:08:38;1.02;;;0.40;;
84355;SDS011;74539;43.518;1.504;2024-03-08T06:11:04;2.10;;;0.40;;
84355;SDS011;74539;43.518;1.504;2024-03-08T06:13:31;0.77;;;0.40;;
84355;SDS011;74539;43.518;1.504;2024-03-08T06:15:59;1.10;;;0.43;;
84355;SDS011;74539;43.518;1.504;2024-03-08T06:18:25;1.08;;;0.50;;
84355;SDS011;74539;43.518;1.504;2024-03-08T06:20:51;0.73;;;0.40;;
84355;SDS011;74539;43.518;1.504;2024-03-08T06:23:17;0.73;;;0.43;;
84355;SDS011;74539;43.518;1.504;2024-03-08T06:25:44;0.90;;;0.35;;
84355;SDS011;74539;43.518;1.504;2024-03-08T06:28:10;1.60;;;0.50;;
84355;SDS011;74539;43.518;1.504;2024-03-08T06:30:35;2.47;;;0.65;;
84355;SDS011;74539;43.518;1.504;2024-03-08T06:33:01;1.88;;;0.40;;
84355;SDS011;74539;43.518;1.504;2024-03-08T06:35:27;1.27;;;0.50;;
84355;SDS011;74539;43.518;1.504;2024-03-08T06:37:53;2.17;;;0.55;;
84355;SDS011;74539;43.518;1.504;2024-03-08T06:40:18;0.80;;;0.40;;
84355;SDS011;74539;43.518;1.504;2024-03-08T06:42:44;1.55;;;0.47;;
84355;SDS011;74539;43.518;1.504;2024-03-08T06:45:10;1.42;;;0.40;;
84355;SDS011;74539;43.518;1.504;2024-03-08T06:47:37;1.88;;;0.50;;
84355;SDS011;74539;43.518;1.504;2024-03-08T06:50:03;0.70;;;0.38;;
84355;SDS011;74539;43.518;1.504;2024-03-08T06:52:29;1.20;;;0.50;;
84355;SDS011;74539;43.518;1.504;2024-03-08T06:54:55;1.05;;;0.40;;
84355;SDS011;74539;43.518;1.504;2024-03-08T06:57:22;1.27;;;0.40;;
84355;SDS011;74539;43.518;1.504;2024-03-08T06:59:48;2.65;;;0.52;;
84355;SDS011;74539;43.518;1.504;2024-03-08T07:02:14;1.25;;;0.50;;
84355;SDS011;74539;43.518;1.504;2024-03-08T07:04:40;1.15;;;0.45;;
84355;SDS011;74539;43.518;1.504;2024-03-08T07:07:05;1.58;;;0.50;;
84355;SDS011;74539;43.518;1.504;2024-03-08T07:09:37;2.10;;;0.40;;
84355;SDS011;74539;43.518;1.504;2024-03-08T07:12:03;1.02;;;0.40;;
84355;SDS011;74539;43.518;1.504;2024-03-08T07:14:29;1.95;;;0.60;;
84355;SDS011;74539;43.518;1.504;2024-03-08T07:16:56;1.17;;;0.30;;
84355;SDS011;74539;43.518;1.504;2024-03-08T07:19:21;1.40;;;0.30;;
84355;SDS011;74539;43.518;1.504;2024-03-08T07:21:47;0.52;;;0.32;;
84355;SDS011;74539;43.518;1.504;2024-03-08T07:24:13;1.40;;;0.22;;
84355;SDS011;74539;43.518;1.504;2024-03-08T07:26:42;1.02;;;0.30;;
84355;SDS011;74539;43.518;1.504;2024-03-08T07:29:08;2.70;;;0.35;;
84355;SDS011;74539;43.518;1.504;2024-03-08T07:31:34;0.68;;;0.30;;
84355;SDS011;74539;43.518;1.504;2024-03-08T07:34:02;1.67;;;0.20;;
84355;SDS011;74539;43.518;1.504;2024-03-08T07:36:28;1.75;;;0.40;;
84355;SDS011;74539;43.518;1.504;2024-03-08T07:38:54;0.95;;;0.30;;
84355;SDS011;74539;43.518;1.504;2024-03-08T07:41:20;0.63;;;0.20;;
84355;SDS011;74539;43.518;1.504;2024-03-08T07:43:45;1.30;;;0.30;;
84355;SDS011;74539;43.518;1.504;2024-03-08T07:46:11;1.67;;;0.30;;
84355;SDS011;74539;43.518;1.504;2024-03-08T07:48:38;0.30;;;0.20;;
84355;SDS011;74539;43.518;1.504;2024-03-08T07:51:05;0.75;;;0.20;;
84355;SDS011;74539;43.518;1.504;2024-03-08T07:53:30;0.85;;;0.20;;
84355;SDS011;74539;43.518;1.504;2024-03-08T07:55:56;0.50;;;0.30;;
84355;SDS011;74539;43.518;1.504;2024-03-08T07:58:22;1.50;;;0.30;;
84355;SDS011;74539;43.518;1.504;2024-03-08T08:00:50;0.22;;;0.15;;
84355;SDS011;74539;43.518;1.504;2024-03-08T08:03:15;0.40;;;0.22;;
84355;SDS011;74539;43.518;1.504;2024-03-08T08:05:45;0.35;;;0.20;;
84355;SDS011;74539;43.518;1.504;2024-03-08T08:08:12;0.47;;;0.20;;
84355;SDS011;74539;43.518;1.504;2024-03-08T08:10:37;0.85;;;0.30;;
84355;SDS011;74539;43.518;1.504;2024-03-08T08:13:03;0.32;;;0.25;;
84355;SDS011;74539;43.518;1.504;2024-03-08T08:15:32;0.63;;;0.20;;
84355;SDS011;74539;43.518;1.504;2024-03-08T08:17:59;0.45;;;0.10;;
84355;SDS011;74539;43.518;1.504;2024-03-08T08:20:25;0.32;;;0.20;;
84355;SDS011;74539;43.518;1.504;2024-03-08T08:22:53;0.68;;;0.20;;
84355;SDS011;74539;43.518;1.504;2024-03-08T08:25:20;0.65;;;0.20;;
84355;SDS011;74539;43.518;1.504;2024-03-08T08:27:47;0.73;;;0.20;;
84355;SDS011;74539;43.518;1.504;2024-03-08T08:30:13;0.60;;;0.28;;
84355;SDS011;74539;43.518;1.504;2024-03-08T08:32:39;0.60;;;0.30;;
84355;SDS011;74539;43.518;1.504;2024-03-08T08:35:07;0.40;;;0.20;;
84355;SDS011;74539;43.518;1.504;2024-03-08T08:37:40;0.77;;;0.40;;
84355;SDS011;74539;43.518;1.504;2024-03-08T08:40:06;0.75;;;0.30;;
84355;SDS011;74539;43.518;1.504;2024-03-08T08:42:39;0.25;;;0.15;;
84355;SDS011;74539;43.518;1.504;2024-03-08T08:45:05;1.08;;;0.20;;
84355;SDS011;74539;43.518;1.504;2024-03-08T08:47:37;1.40;;;0.20;;
84355;SDS011;74539;43.518;1.504;2024-03-08T08:50:03;1.15;;;0.30;;
84355;SDS011;74539;43.518;1.504;2024-03-08T08:52:30;0.10;;;0.10;;
84355;SDS011;74539;43.518;1.504;2024-03-08T08:54:57;0.45;;;0.25;;
84355;SDS011;74539;43.518;1.504;2024-03-08T08:57:23;0.50;;;0.20;;
84355;SDS011;74539;43.518;1.504;2024-03-08T08:59:49;0.45;;;0.20;;
84355;SDS011;74539;43.518;1.504;2024-03-08T09:02:15;0.85;;;0.25;;
84355;SDS011;74539;43.518;1.504;2024-03-08T09:04:42;0.73;;;0.30;;
84355;SDS011;74539;43.518;1.504;2024-03-08T09:07:11;0.40;;;0.20;;
84355;SDS011;74539;43.518;1.504;2024-03-08T09:09:38;0.68;;;0.15;;
84355;SDS011;74539;43.518;1.504;2024-03-08T09:12:04;0.57;;;0.20;;
84355;SDS011;74539;43.518;1.504;2024-03-08T09:14:30;0.40;;;0.25;;
84355;SDS011;74539;43.518;1.504;2024-03-08T09:16:55;0.50;;;0.35;;
84355;SDS011;74539;43.518;1.504;2024-03-08T09:19:21;0.38;;;0.20;;
84355;SDS011;74539;43.518;1.504;2024-03-08T09:21:48;0.17;;;0.17;;
84355;SDS011;74539;43.518;1.504;2024-03-08T09:24:14;0.30;;;0.30;;
84355;SDS011;74539;43.518;1.504;2024-03-08T09:26:39;0.38;;;0.30;;
84355;SDS011;74539;43.518;1.504;2024-03-08T09:29:07;0.50;;;0.30;;
84355;SDS011;74539;43.518;1.504;2024-03-08T09:31:32;0.80;;;0.30;;
84355;SDS011;74539;43.518;1.504;2024-03-08T09:33:59;0.73;;;0.38;;
84355;SDS011;74539;43.518;1.504;2024-03-08T09:36:24;0.20;;;0.20;;
84355;SDS011;74539;43.518;1.504;2024-03-08T09:38:50;0.63;;;0.30;;
84355;SDS011;74539;43.518;1.504;2024-03-08T09:41:16;1.30;;;0.30;;
84355;SDS011;74539;43.518;1.504;2024-03-08T09:43:42;1.08;;;0.32;;
84355;SDS011;74539;43.518;1.504;2024-03-08T09:46:08;0.65;;;0.40;;
84355;SDS011;74539;43.518;1.504;2024-03-08T09:48:36;1.33;;;0.38;;
84355;SDS011;74539;43.518;1.504;2024-03-08T09:51:03;0.85;;;0.20;;
84355;SDS011;74539;43.518;1.504;2024-03-08T09:53:30;1.23;;;0.30;;
84355;SDS011;74539;43.518;1.504;2024-03-08T09:55:56;1.45;;;0.45;;
84355;SDS011;74539;43.518;1.504;2024-03-08T09:58:21;1.42;;;0.40;;
84355;SDS011;74539;43.518;1.504;2024-03-08T10:01:07;1.92;;;0.63;;
84355;SDS011;74539;43.518;1.504;2024-03-08T10:03:33;0.93;;;0.55;;
84355;SDS011;74539;43.518;1.504;2024-03-08T10:05:59;1.00;;;0.50;;
84355;SDS011;74539;43.518;1.504;2024-03-08T10:08:26;1.50;;;0.45;;
84355;SDS011;74539;43.518;1.504;2024-03-08T10:10:54;0.60;;;0.40;;
84355;SDS011;74539;43.518;1.504;2024-03-08T10:13:23;1.25;;;0.40;;
84355;SDS011;74539;43.518;1.504;2024-03-08T10:15:51;1.77;;;0.50;;
84355;SDS011;74539;43.518;1.504;2024-03-08T10:18:17;1.08;;;0.50;;
84355;SDS011;74539;43.518;1.504;2024-03-08T10:20:43;1.30;;;0.43;;
84355;SDS011;74539;43.518;1.504;2024-03-08T10:23:09;1.65;;;0.57;;
84355;SDS011;74539;43.518;1.504;2024-03-08T10:25:35;1.33;;;0.60;;
84355;SDS011;74539;43.518;1.504;2024-03-08T10:28:05;0.93;;;0.63;;
84355;SDS011;74539;43.518;1.504;2024-03-08T10:30:31;1.27;;;0.60;;
84355;SDS011;74539;43.518;1.504;2024-03-08T10:32:57;0.60;;;0.30;;
84355;SDS011;74539;43.518;1.504;2024-03-08T10:35:23;0.65;;;0.50;;
84355;SDS011;74539;43.518;1.504;2024-03-08T10:37:52;0.80;;;0.50;;
84355;SDS011;74539;43.518;1.504;2024-03-08T10:40:24;1.90;;;0.52;;
84355;SDS011;74539;43.518;1.504;2024-03-08T10:42:54;0.77;;;0.57;;
84355;SDS011;74539;43.518;1.504;2024-03-08T10:48:03;0.73;;;0.40;;
84355;SDS011;74539;43.518;1.504;2024-03-08T10:50:36;0.85;;;0.47;;
84355;SDS011;74539;43.518;1.504;2024-03-08T10:53:03;1.33;;;0.57;;
84355;SDS011;74539;43.518;1.504;2024-03-08T10:55:31;1.00;;;0.50;;
84355;SDS011;74539;43.518;1.504;2024-03-08T10:57:59;0.82;;;0.40;;
84355;SDS011;74539;43.518;1.504;2024-03-08T11:00:25;0.40;;;0.38;;
84355;SDS011;74539;43.518;1.504;2024-03-08T11:02:52;0.98;;;0.50;;
84355;SDS011;74539;43.518;1.504;2024-03-08T11:08:17;1.08;;;0.40;;
84355;SDS011;74539;43.518;1.504;2024-03-08T11:10:54;1.00;;;0.52;;
84355;SDS011;74539;43.518;1.504;2024-03-08T11:16:12;1.15;;;0.43;;
84355;SDS011;74539;43.518;1.504;2024-03-08T11:18:48;2.03;;;0.50;;
84355;SDS011;74539;43.518;1.504;2024-03-08T11:21:14;0.88;;;0.60;;
84355;SDS011;74539;43.518;1.504;2024-03-08T11:23:40;1.00;;;0.50;;
84355;SDS011;74539;43.518;1.504;2024-03-08T11:26:19;0.80;;;0.40;;
84355;SDS011;74539;43.518;1.504;2024-03-08T11:28:45;0.43;;;0.40;;
84355;SDS011;74539;43.518;1.504;2024-03-08T11:33:39;0.68;;;0.40;;
84355;SDS011;74539;43.518;1.504;2024-03-08T11:36:26;0.60;;;0.40;;
84355;SDS011;74539;43.518;1.504;2024-03-08T11:41:19;1.00;;;0.50;;
84355;SDS011;74539;43.518;1.504;2024-03-08T11:43:47;1.05;;;0.40;;
84355;SDS011;74539;43.518;1.504;2024-03-08T11:46:14;0.90;;;0.40;;
84355;SDS011;74539;43.518;1.504;2024-03-08T11:48:42;0.60;;;0.40;;
84355;SDS011;74539;43.518;1.504;2024-03-08T11:51:09;0.40;;;0.35;;
84355;SDS011;74539;43.518;1.504;2024-03-08T11:53:39;1.63;;;0.43;;
84355;SDS011;74539;43.518;1.504;2024-03-08T11:56:06;0.50;;;0.38;;
84355;SDS011;74539;43.518;1.504;2024-03-08T11:58:33;0.65;;;0.40;;
84355;SDS011;74539;43.518;1.504;2024-03-08T12:01:04;1.05;;;0.40;;
84355;SDS011;74539;43.518;1.504;2024-03-08T12:03:31;0.68;;;0.57;;
84355;SDS011;74539;43.518;1.504;2024-03-08T12:05:59;0.60;;;0.40;;
84355;SDS011;74539;43.518;1.504;2024-03-08T12:08:27;0.90;;;0.30;;
84355;SDS011;74539;43.518;1.504;2024-03-08T12:10:56;1.15;;;0.45;;
84355;SDS011;74539;43.518;1.504;2024-03-08T12:13:26;0.22;;;0.22;;
84355;SDS011;74539;43.518;1.504;2024-03-08T12:15:59;0.70;;;0.40;;
84355;SDS011;74539;43.518;1.504;2024-03-08T12:18:29;0.55;;;0.43;;
84355;SDS011;74539;43.518;1.504;2024-03-08T12:23:33;1.02;;;0.47;;
84355;SDS011;74539;43.518;1.504;2024-03-08T12:26:08;0.60;;;0.40;;
84355;SDS011;74539;43.518;1.504;2024-03-08T12:28:42;0.70;;;0.50;;
84355;SDS011;74539;43.518;1.504;2024-03-08T12:31:13;0.40;;;0.40;;
84355;SDS011;74539;43.518;1.504;2024-03-08T12:33:51;0.45;;;0.35;;
84355;SDS011;74539;43.518;1.504;2024-03-08T12:36:18;0.90;;;0.40;;
84355;SDS011;74539;43.518;1.504;2024-03-08T12:38:46;0.57;;;0.30;;
84355;SDS011;74539;43.518;1.504;2024-03-08T12:41:15;0.28;;;0.25;;
84355;SDS011;74539;43.518;1.504;2024-03-08T12:43:45;0.47;;;0.40;;
84355;SDS011;74539;43.518;1.504;2024-03-08T12:46:14;0.93;;;0.40;;
84355;SDS011;74539;43.518;1.504;2024-03-08T12:48:40;0.77;;;0.40;;
84355;SDS011;74539;43.518;1.504;2024-03-08T12:51:06;0.47;;;0.30;;
84355;SDS011;74539;43.518;1.504;2024-03-08T12:53:32;0.50;;;0.35;;
84355;SDS011;74539;43.518;1.504;2024-03-08T12:55:58;1.00;;;0.40;;
84355;SDS011;74539;43.518;1.504;2024-03-08T12:58:24;0.65;;;0.20;;
84355;SDS011;74539;43.518;1.504;2024-03-08T13:00:51;0.52;;;0.30;;
84355;SDS011;74539;43.518;1.504;2024-03-08T13:03:17;1.33;;;0.43;;
84355;SDS011;74539;43.518;1.504;2024-03-08T13:05:43;0.77;;;0.35;;
84355;SDS011;74539;43.518;1.504;2024-03-08T13:08:08;0.30;;;0.30;;
84355;SDS011;74539;43.518;1.504;2024-03-08T13:10:38;0.50;;;0.30;;
84355;SDS011;74539;43.518;1.504;2024-03-08T13:13:04;0.60;;;0.32;;
84355;SDS011;74539;43.518;1.504;2024-03-08T13:15:30;1.13;;;0.30;;
84355;SDS011;74539;43.518;1.504;2024-03-08T13:17:56;0.68;;;0.30;;
84355;SDS011;74539;43.518;1.504;2024-03-08T13:20:25;0.60;;;0.20;;
84355;SDS011;74539;43.518;1.504;2024-03-08T13:22:53;0.90;;;0.30;;
84355;SDS011;74539;43.518;1.504;2024-03-08T13:25:19;0.40;;;0.20;;
84355;SDS011;74539;43.518;1.504;2024-03-08T13:27:45;0.43;;;0.20;;
84355;SDS011;74539;43.518;1.504;2024-03-08T13:30:12;0.25;;;0.20;;
84355;SDS011;74539;43.518;1.504;2024-03-08T13:32:42;0.30;;;0.20;;
84355;SDS011;74539;43.518;1.504;2024-03-08T13:35:11;0.57;;;0.23;;
84355;SDS011;74539;43.518;1.504;2024-03-08T13:37:41;0.20;;;0.20;;
84355;SDS011;74539;43.518;1.504;2024-03-08T13:40:08;0.40;;;0.20;;
84355;SDS011;74539;43.518;1.504;2024-03-08T13:42:42;0.50;;;0.20;;
84355;SDS011;74539;43.518;1.504;2024-03-08T13:45:11;0.32;;;0.30;;
84355;SDS011;74539;43.518;1.504;2024-03-08T13:47:36;0.93;;;0.40;;
84355;SDS011;74539;43.518;1.504;2024-03-08T13:50:04;0.38;;;0.25;;
84355;SDS011;74539;43.518;1.504;2024-03-08T13:52:32;0.28;;;0.28;;
84355;SDS011;74539;43.518;1.504;2024-03-08T13:55:00;0.93;;;0.20;;
84355;SDS011;74539;43.518;1.504;2024-03-08T13:57:26;0.20;;;0.20;;
84355;SDS011;74539;43.518;1.504;2024-03-08T13:59:52;1.73;;;0.20;;
84355;SDS011;74539;43.518;1.504;2024-03-08T14:02:18;0.63;;;0.30;;
84355;SDS011;74539;43.518;1.504;2024-03-08T14:04:44;0.45;;;0.20;;
84355;SDS011;74539;43.518;1.504;2024-03-08T14:07:10;0.22;;;0.20;;
84355;SDS011;74539;43.518;1.504;2024-03-08T14:09:36;0.73;;;0.30;;
84355;SDS011;74539;43.518;1.504;2024-03-08T14:12:04;0.35;;;0.30;;
84355;SDS011;74539;43.518;1.504;2024-03-08T14:14:33;1.80;;;0.65;;
84355;SDS011;74539;43.518;1.504;2024-03-08T14:17:00;1.40;;;0.30;;
84355;SDS011;74539;43.518;1.504;2024-03-08T14:19:27;0.65;;;0.30;;
84355;SDS011;74539;43.518;1.504;2024-03-08T14:21:53;1.05;;;0.30;;
84355;SDS011;74539;43.518;1.504;2024-03-08T14:24:19;0.50;;;0.28;;
84355;SDS011;74539;43.518;1.504;2024-03-08T14:26:45;1.85;;;0.20;;
84355;SDS011;74539;43.518;1.504;2024-03-08T14:29:14;0.70;;;0.17;;
84355;SDS011;74539;43.518;1.504;2024-03-08T14:31:40;1.52;;;0.30;;
84355;SDS011;74539;43.518;1.504;2024-03-08T14:34:06;0.47;;;0.43;;
84355;SDS011;74539;43.518;1.504;2024-03-08T14:36:32;0.75;;;0.30;;
84355;SDS011;74539;43.518;1.504;2024-03-08T14:38:58;1.27;;;0.32;;
84355;SDS011;74539;43.518;1.504;2024-03-08T14:41:24;0.63;;;0.30;;
84355;SDS011;74539;43.518;1.504;2024-03-08T14:43:49;0.30;;;0.30;;
84355;SDS011;74539;43.518;1.504;2024-03-08T14:46:17;0.35;;;0.30;;
84355;SDS011;74539;43.518;1.504;2024-03-08T14:48:54;0.60;;;0.20;;
84355;SDS011;74539;43.518;1.504;2024-03-08T14:51:21;0.38;;;0.30;;
84355;SDS011;74539;43.518;1.504;2024-03-08T14:53:51;0.65;;;0.28;;
84355;SDS011;74539;43.518;1.504;2024-03-08T14:56:20;0.82;;;0.30;;
84355;SDS011;74539;43.518;1.504;2024-03-08T14:58:48;0.95;;;0.30;;
84355;SDS011;74539;43.518;1.504;2024-03-08T15:01:15;0.38;;;0.20;;
84355;SDS011;74539;43.518;1.504;2024-03-08T15:03:43;0.60;;;0.30;;